• Join FlightAware (Why Join?)
  • Login
  • US Flag 
12:41PM EST


 

Airport Tracker/Info


-or-


 

Live Flight TrackerFlight Track Log ✈ DAL268 ✈ 08-Jun-2013 ✈ KATL - KJFK

Flight Track Log - Related Links

Times and Time Zones

All times are in EDT time to prevent confusion due to time zone crossing. See the DAL268 flight status page for this flight to view local times or setup timezone preferences in your user account.

Time Position Orientation Groundspeed Altitude Reporting Facility
EDT Latitude Longitude Course Direction KTS MPH feet Rate Location/Type
06:29PM 33.6333 -84.4833 64° Northeast 187 215 2,400  Level Atlanta TRACON
06:30PM 33.6000 -84.5500 239° Southwest 243 280 3,900 1,920 Climbing Atlanta TRACON
06:31PM 33.5500 -84.5833 209° Southwest 270 311 6,100 2,460 Climbing Atlanta TRACON
06:32PM 33.6848 -83.8417 101° East  Level FlightAware Approximate
06:32PM 33.4833 -84.5833 180° South 280 322 8,600  Level Atlanta TRACON
06:33PM 33.6606 -83.6966 101° East  Level FlightAware Approximate
06:34PM 33.6806 -83.5585 64° Northeast  Level FlightAware Approximate
06:34PM 33.4578 -84.3325 97° East 333 383 12,200  Level Atlanta Center
06:35PM 33.7348 -83.4256 64° Northeast  Level FlightAware Approximate
06:35PM 33.4894 -84.2008 74° East 410 472 13,900  Level Atlanta Center
06:36PM 33.5439 -84.0686 64° Northeast 416 479 15,900 1,920 Climbing Atlanta Center
06:37PM 33.5958 -83.9342 65° Northeast 426 490 17,800 1,740 Climbing Atlanta Center
06:38PM 33.6311 -83.7894 74° East 431 496 19,400 1,500 Climbing Atlanta Center
06:39PM 33.6622 -83.6394 76° East 455 524 20,800 1,320 Climbing Atlanta Center
06:40PM 33.7158 -83.4969 66° East 460 529 22,100 1,260 Climbing Atlanta Center
06:41PM 33.7756 -83.3489 64° Northeast 480 552 23,400 1,200 Climbing Atlanta Center
06:42PM 33.8292 -83.2186 64° Northeast 485 558 24,600 1,320 Climbing Atlanta Center
06:43PM 33.8886 -83.0678 65° Northeast 492 566 26,100 1,500 Climbing Atlanta Center
06:44PM 33.9456 -82.9169 65° Northeast 487 560 27,600 1,200 Climbing Atlanta Center
06:45PM 34.0069 -82.7683 63° Northeast 492 566 28,500 900 Climbing Atlanta Center
06:46PM 34.0656 -82.6169 65° Northeast 486 559 29,500 900 Climbing Atlanta Center
06:47PM 34.1328 -82.4653 62° Northeast 493 567 30,300 720 Climbing Atlanta Center
06:48PM 34.1933 -82.3108 65° Northeast 493 567 31,000 300 Climbing Atlanta Center
06:49PM 34.2536 -82.1564 65° Northeast 498 573 31,000  Level Atlanta Center
06:50PM 34.3264 -82.0064 60° Northeast 504 580 31,000  Level Atlanta Center
06:51PM 34.4008 -81.8561 59° Northeast 511 588 31,000  Level Atlanta Center
06:52PM 34.4733 -81.7056 60° Northeast 516 594 31,000  Level Atlanta Center
06:53PM 34.5497 -81.5572 58° Northeast 516 594 31,000  Level Atlanta Center
06:54PM 34.6217 -81.4086 60° Northeast 516 594 31,000  Level Atlanta Center
06:55PM 34.7036 -81.2419 59° Northeast 516 594 31,000  Level Atlanta Center
06:56PM 34.7753 -81.0928 60° Northeast 516 594 31,000  Level Atlanta Center
06:57PM 34.8489 -80.9433 59° Northeast 511 588 31,000  Level Atlanta Center
06:58PM 34.9200 -80.7964 59° Northeast 511 588 31,000  Level Atlanta Center
07:00PM 35.0369 -80.5536 59° Northeast 515 593 31,000  Level Washington Center
07:01PM 35.1053 -80.4158 59° Northeast 510 587 31,000  Level Washington Center
07:02PM 35.1778 -80.2675 59° Northeast 510 587 31,000  Level Washington Center
07:03PM 35.2461 -80.1189 61° Northeast 510 587 31,000  Level Washington Center
07:04PM 35.3253 -79.9556 59° Northeast 504 580 31,000  Level Washington Center
07:05PM 35.3975 -79.8064 59° Northeast 504 580 31,000  Level Washington Center
07:06PM 35.4675 -79.6547 60° Northeast 504 580 31,000  Level Washington Center
07:07PM 35.5392 -79.5025 60° Northeast 504 580 31,000  Level Washington Center
07:08PM 35.6108 -79.3503 60° Northeast 509 586 31,000  Level Washington Center
07:09PM 35.6822 -79.2003 60° Northeast 509 586 31,000  Level Washington Center
07:10PM 35.7536 -79.0422 61° Northeast 509 586 31,000  Level Washington Center
07:11PM 35.8289 -78.8892 59° Northeast 509 586 31,000  Level Washington Center
07:12PM 35.8833 -78.7272 67° East 514 592 31,000  Level Washington Center
07:13PM 35.9006 -78.5486 83° East 509 586 31,000  Level Washington Center
07:14PM 35.9167 -78.3928 83° East 509 586 31,000  Level Washington Center
07:15PM 35.9375 -78.2189 82° East 509 586 31,000  Level Washington Center
07:17PM 36.0814 -77.9103 60° Northeast 500 575 31,000  Level Washington Center
07:18PM 36.1572 -77.7581 58° Northeast 505 581 31,000  Level Washington Center
07:19PM 36.2311 -77.6031 59° Northeast 510 587 31,000  Level Washington Center
07:20PM 36.3108 -77.4375 59° Northeast 515 593 31,000  Level Washington Center
07:21PM 36.3861 -77.2794 59° Northeast 515 593 31,000  Level Washington Center
07:22PM 36.4756 -77.1444 50° Northeast 515 593 31,000  Level Washington Center
07:23PM 36.5878 -77.0250 41° Northeast 510 587 31,000  Level Washington Center
07:24PM 36.6997 -76.9106 39° Northeast 515 593 31,000  Level Washington Center
07:25PM 36.8031 -76.8033 40° Northeast 520 598 31,000  Level Washington Center
07:26PM 36.9147 -76.6831 41° Northeast 526 605 31,000  Level Washington Center
07:27PM 37.0264 -76.5647 40° Northeast 526 605 31,000  Level Washington Center
07:28PM 37.1397 -76.4439 40° Northeast 531 611 31,000  Level Washington Center
07:29PM 37.2533 -76.3225 40° Northeast 531 611 31,000  Level Washington Center
07:30PM 37.3667 -76.2033 40° Northeast 531 611 31,000  Level Washington Center
07:31PM 37.4714 -76.0969 39° Northeast 536 617 31,000  Level Washington Center
07:32PM 37.5950 -75.9639 40° Northeast 536 617 31,000  Level Washington Center
07:33PM 37.7100 -75.8439 40° Northeast 536 617 31,000  Level Washington Center
07:34PM 37.8247 -75.7181 41° Northeast 536 617 31,000  Level Washington Center
07:35PM 37.9394 -75.5969 40° Northeast 536 617 31,000  Level Washington Center
07:36PM 38.0583 -75.4758 39° Northeast 536 617 31,000  Level Washington Center
07:37PM 38.1897 -75.3856 28° Northeast 536 617 31,000  Level Washington Center
07:38PM 38.3208 -75.3006 27° Northeast 526 605 31,000  Level Washington Center
07:39PM 38.4519 -75.2206 26° Northeast 521 600 31,000  Level Washington Center
07:40PM 38.5850 -75.1375 26° Northeast 521 600 31,000  Level Washington Center
07:41PM 38.7161 -75.0517 27° Northeast 521 600 31,000  Level Washington Center
07:42PM 38.8469 -74.9572 29° Northeast 527 606 31,000 -600 Level Washington Center
07:43PM 38.9672 -74.8442 36° Northeast 538 619 29,900 -1,440 Descending Washington Center
07:44PM 39.0978 -74.7303 34° Northeast 545 627 28,200 -2,280 Descending Washington Center
07:46PM 39.3458 -74.5025 35° Northeast 531 611 23,400 -2,460 Descending New York Center
07:47PM 39.4553 -74.4006 36° Northeast 507 583 21,000 -2,340 Descending New York Center
07:48PM 39.5519 -74.3086 36° Northeast 485 558 18,700 -1,980 Descending New York Center
07:49PM 39.6531 -74.2033 39° Northeast 465 535 17,100 -1,860 Descending New York Center
07:50PM 39.7522 -74.0892 41° Northeast 445 512 15,100 -1,800 Descending New York Center
07:51PM 39.8467 -73.9911 39° Northeast 432 497 13,600 -1,740 Descending New York Center
07:52PM 39.9297 -73.9217 33° Northeast 407 468 11,600 -1,500 Descending New York Center
07:53PM 40.0131 -73.8497 33° Northeast 379 436 10,600 -1,080 Descending New York Center
07:54PM 40.0942 -73.7800 33° Northeast 331 381 9,500 -1,080 Descending New York Center
07:55PM 40.1667 -73.7167 34° Northeast 295 339 8,600 -1,020 Descending New York TRACON
07:56PM 40.2333 -73.6500 37° Northeast 288 331 7,400 -1,080 Descending New York TRACON
07:57PM 40.2919 -73.6172 23° Northeast 286 329 6,500 -1,080 Descending New York Center
07:58PM 40.3642 -73.5575 32° Northeast 281 323 5,400 -960 Descending New York Center
07:59PM 40.4275 -73.5247 22° Northeast 268 308 4,700 -720 Descending New York Center
08:00PM 40.5167 -73.4833 19° North 264 304 4,000 -360 Descending New York TRACON
08:01PM 40.5833 -73.4500 21° North 265 305 4,000  Level New York TRACON
08:02PM 40.6500 -73.4667 349° North 255 293 4,000 -300 Level New York TRACON
08:03PM 40.7167 -73.5000 339° North 260 299 3,500 -900 Descending New York TRACON
08:04PM 40.7500 -73.5667 303° West 220 253 2,300 -780 Descending New York TRACON
08:05PM 40.7500 -73.6500 270° West 205 236 2,000 -360 Descending New York TRACON